createdAt,value
2023-03-31T00:04:05.760Z,8.08
2023-03-31T00:09:19.071Z,8.05
2023-03-31T00:14:22.157Z,8.03
2023-03-31T00:19:25.161Z,8.02
2023-03-31T00:24:32.816Z,7.98
2023-03-31T00:29:36.193Z,7.95
2023-03-31T00:34:39.091Z,7.94
2023-03-31T00:39:43.413Z,7.91
2023-03-31T00:45:09.578Z,7.89
2023-03-31T00:50:19.009Z,7.85
2023-03-31T00:55:27.016Z,7.83
2023-03-31T01:00:30.474Z,7.82
2023-03-31T01:05:40.033Z,7.83
2023-03-31T01:10:48.063Z,7.82
2023-03-31T01:15:51.546Z,7.80
2023-03-31T01:20:57.248Z,7.78
2023-03-31T01:26:22.839Z,7.77
2023-03-31T01:31:56.612Z,7.76
2023-03-31T01:37:37.812Z,7.74
2023-03-31T01:42:57.692Z,7.72
2023-03-31T01:48:21.273Z,7.68
2023-03-31T01:53:45.403Z,7.66
2023-03-31T01:58:58.965Z,7.64
2023-03-31T02:04:09.935Z,7.63
2023-03-31T02:09:19.908Z,7.61
2023-03-31T02:14:26.674Z,7.59
2023-03-31T02:19:40.167Z,7.57
2023-03-31T02:24:46.105Z,7.58
2023-03-31T02:29:49.737Z,7.58
2023-03-31T02:34:53.958Z,7.62
2023-03-31T02:40:00.542Z,7.68
2023-03-31T02:45:08.343Z,7.67
2023-03-31T02:50:11.202Z,7.63
2023-03-31T02:55:37.718Z,7.63
2023-03-31T03:00:55.315Z,7.61
2023-03-31T03:06:13.916Z,7.62
2023-03-31T03:11:39.314Z,7.58
2023-03-31T03:16:48.058Z,7.54
2023-03-31T03:21:50.788Z,7.54
2023-03-31T03:26:53.462Z,7.54
2023-03-31T03:31:56.149Z,7.51
2023-03-31T03:36:58.856Z,7.49
2023-03-31T03:42:01.591Z,7.51
2023-03-31T03:47:04.440Z,7.51
2023-03-31T03:52:07.777Z,7.52
2023-03-31T03:57:11.019Z,7.51
2023-03-31T04:02:14.524Z,7.50
2023-03-31T04:07:17.705Z,7.49
2023-03-31T04:12:20.501Z,7.48
2023-03-31T04:17:33.268Z,7.45
2023-03-31T04:22:41.048Z,7.41
2023-03-31T04:27:55.198Z,7.41
2023-03-31T04:33:00.781Z,7.42
2023-03-31T04:38:03.547Z,7.41
2023-03-31T04:43:06.398Z,7.44
2023-03-31T04:48:09.693Z,7.48
2023-03-31T04:53:12.498Z,7.48
2023-03-31T04:58:15.511Z,7.50
2023-03-31T05:03:19.248Z,7.57
2023-03-31T05:08:22.019Z,7.63
2023-03-31T05:13:25.143Z,7.63
2023-03-31T05:18:28.016Z,7.61
2023-03-31T05:23:31.263Z,7.64
2023-03-31T05:28:34.686Z,7.68
2023-03-31T05:33:42.225Z,7.78
2023-03-31T05:38:45.917Z,7.87
2023-03-31T05:43:48.666Z,7.96
2023-03-31T05:48:51.416Z,8.07
2023-03-31T05:53:54.837Z,8.18
2023-03-31T05:59:00.559Z,8.18
2023-03-31T06:04:03.497Z,8.21
2023-03-31T06:09:06.719Z,8.24
2023-03-31T06:14:09.483Z,8.27
2023-03-31T06:19:12.324Z,8.31
2023-03-31T06:24:15.020Z,8.23
2023-03-31T06:29:17.695Z,8.11
2023-03-31T06:34:21.499Z,8.04
2023-03-31T06:39:28.329Z,8.04
2023-03-31T06:44:32.192Z,8.17
2023-03-31T06:49:35.478Z,8.31
2023-03-31T06:54:38.455Z,8.37
2023-03-31T06:59:41.491Z,8.35
2023-03-31T07:04:44.405Z,8.31
2023-03-31T07:09:48.367Z,8.28
2023-03-31T07:14:52.575Z,8.27
2023-03-31T07:19:55.646Z,8.30
2023-03-31T07:24:58.330Z,8.36
2023-03-31T07:30:01.432Z,8.46
2023-03-31T07:35:04.108Z,8.52
2023-03-31T07:40:07.960Z,8.62
2023-03-31T07:45:10.997Z,8.71
2023-03-31T07:50:14.512Z,8.75
2023-03-31T07:55:17.974Z,8.95
2023-03-31T08:00:21.321Z,9.10
2023-03-31T08:05:25.925Z,9.28
2023-03-31T08:10:32.311Z,9.72
2023-03-31T08:20:28.452Z,10.38
2023-03-31T08:25:31.936Z,10.47
2023-03-31T08:30:34.750Z,10.32
2023-03-31T08:35:38.099Z,10.12
2023-03-31T08:40:41.687Z,9.96
2023-03-31T08:45:47.844Z,9.83
2023-03-31T08:51:04.823Z,9.90
2023-03-31T08:56:15.412Z,9.80
2023-03-31T09:01:47.716Z,9.60
2023-03-31T09:07:09.426Z,9.61
2023-03-31T09:12:21.057Z,9.59
2023-03-31T09:17:39.126Z,9.65
2023-03-31T09:22:47.115Z,9.78
2023-03-31T09:27:53.204Z,9.98
2023-03-31T09:33:17.393Z,10.13
2023-03-31T09:38:20.144Z,10.01
2023-03-31T09:43:26.565Z,9.83
2023-03-31T09:48:35.199Z,9.82
2023-03-31T09:53:47.428Z,9.81
2023-03-31T09:58:50.341Z,9.85
2023-03-31T10:03:54.904Z,9.87
2023-03-31T10:09:01.592Z,9.96
2023-03-31T10:14:13.649Z,10.09
2023-03-31T10:19:28.485Z,10.25
2023-03-31T10:24:42.910Z,10.37
2023-03-31T10:29:45.767Z,10.19
2023-03-31T10:34:49.009Z,9.95
2023-03-31T10:40:07.397Z,9.83
2023-03-31T10:45:37.023Z,9.74
2023-03-31T10:50:43.942Z,9.74
2023-03-31T10:56:16.307Z,9.96
2023-03-31T11:01:34.652Z,10.27
2023-03-31T11:07:01.159Z,10.37
2023-03-31T11:12:19.223Z,10.23
2023-03-31T11:17:43.177Z,10.17
2023-03-31T11:23:04.451Z,10.29
2023-03-31T11:28:36.580Z,10.37
2023-03-31T11:34:03.203Z,10.65
2023-03-31T11:39:42.943Z,10.82
2023-03-31T11:44:53.169Z,11.10
2023-03-31T11:50:00.482Z,11.48
2023-03-31T11:55:21.565Z,11.70
2023-03-31T12:00:29.671Z,12.15
2023-03-31T12:05:38.255Z,12.49
2023-03-31T12:10:55.914Z,12.46
2023-03-31T12:16:05.173Z,12.23
2023-03-31T12:21:10.402Z,12.04
2023-03-31T12:26:13.146Z,11.82
2023-03-31T12:31:23.538Z,11.59
2023-03-31T12:36:41.455Z,11.74
2023-03-31T12:42:03.081Z,12.03
2023-03-31T12:47:21.380Z,12.15
2023-03-31T12:52:36.847Z,12.18
2023-03-31T12:57:39.526Z,12.38
2023-03-31T13:02:42.510Z,12.86
2023-03-31T13:07:45.477Z,13.02
2023-03-31T13:13:00.986Z,13.20
2023-03-31T13:18:06.398Z,13.48
2023-03-31T13:23:21.529Z,13.83
2023-03-31T13:28:34.391Z,13.91
2023-03-31T13:33:41.183Z,13.55
2023-03-31T13:38:46.777Z,13.42
2023-03-31T13:43:58.445Z,13.64
2023-03-31T13:49:22.662Z,13.59
2023-03-31T13:54:46.065Z,13.52
2023-03-31T14:00:12.492Z,13.96
2023-03-31T14:06:04.481Z,14.28
2023-03-31T14:11:33.523Z,14.56
2023-03-31T14:16:44.201Z,14.66
2023-03-31T14:22:13.497Z,14.23
2023-03-31T14:28:01.365Z,13.84
2023-03-31T14:33:25.147Z,14.16
2023-03-31T14:38:29.840Z,14.48
2023-03-31T14:43:39.981Z,14.90
2023-03-31T14:48:47.452Z,15.15
2023-03-31T14:53:56.567Z,14.65
2023-03-31T14:59:04.118Z,14.02
2023-03-31T15:04:14.455Z,13.77
2023-03-31T15:09:27.439Z,14.03
2023-03-31T15:20:40.176Z,15.36
2023-03-31T15:25:44.479Z,16.00
2023-03-31T15:36:22.830Z,15.72
2023-03-31T15:41:31.872Z,15.29
2023-03-31T15:46:43.828Z,14.89
2023-03-31T15:51:47.951Z,14.29
2023-03-31T15:56:51.361Z,13.70
2023-03-31T16:01:56.801Z,13.29
2023-03-31T16:07:09.282Z,12.90
2023-03-31T16:12:17.706Z,12.54
2023-03-31T16:17:27.714Z,12.25
2023-03-31T16:22:37.975Z,12.01
2023-03-31T16:27:43.976Z,11.82
2023-03-31T16:33:01.755Z,11.74
2023-03-31T16:38:07.006Z,11.67
2023-03-31T16:43:36.323Z,11.56
2023-03-31T16:48:39.062Z,11.38
2023-03-31T16:53:42.035Z,11.17
2023-03-31T16:58:45.235Z,10.99
2023-03-31T17:03:48.585Z,10.85
2023-03-31T17:08:51.484Z,10.73
2023-03-31T17:13:56.688Z,10.61
2023-03-31T17:18:59.513Z,10.51
2023-03-31T17:29:25.686Z,10.22
2023-03-31T17:34:29.042Z,9.99
2023-03-31T17:39:32.230Z,9.75
2023-03-31T17:44:35.174Z,9.56
2023-03-31T17:49:38.530Z,9.39
2023-03-31T17:54:42.051Z,9.24
2023-03-31T17:59:45.164Z,9.10
2023-03-31T18:04:47.968Z,9.00
2023-03-31T18:09:51.814Z,8.93
2023-03-31T18:14:58.229Z,8.86
2023-03-31T18:20:01.024Z,8.77
2023-03-31T18:25:04.104Z,8.70
2023-03-31T18:30:08.520Z,8.62
2023-03-31T18:35:11.496Z,8.47
2023-03-31T18:40:15.043Z,8.32
2023-03-31T18:45:18.739Z,8.17
2023-03-31T18:50:23.356Z,7.92
2023-03-31T18:55:26.680Z,7.66
2023-03-31T19:00:29.922Z,7.49
2023-03-31T19:05:33.047Z,7.43
2023-03-31T19:10:36.588Z,7.37
2023-03-31T19:15:39.320Z,7.30
2023-03-31T19:20:42.345Z,7.25
2023-03-31T19:25:45.025Z,7.30
2023-03-31T19:30:49.756Z,7.35
2023-03-31T19:35:52.886Z,7.27
2023-03-31T19:40:56.021Z,7.25
2023-03-31T19:46:00.624Z,7.26
2023-03-31T19:51:04.462Z,7.16
2023-03-31T19:56:10.230Z,7.06
2023-03-31T20:01:23.407Z,7.06
2023-03-31T20:06:27.328Z,7.15
2023-03-31T20:11:32.085Z,7.24
2023-03-31T20:16:35.542Z,7.30
2023-03-31T20:21:39.116Z,7.32
2023-03-31T20:26:42.098Z,7.30
2023-03-31T20:31:44.884Z,7.29
2023-03-31T20:36:49.482Z,7.25
2023-03-31T20:41:52.685Z,7.21
2023-03-31T20:46:56.424Z,7.12
2023-03-31T20:52:01.328Z,7.05
2023-03-31T20:57:06.209Z,7.00
2023-03-31T21:02:12.868Z,6.98
2023-03-31T21:07:15.692Z,6.94
2023-03-31T21:12:19.709Z,6.82
2023-03-31T21:17:22.518Z,6.71
2023-03-31T21:22:25.407Z,6.63
2023-03-31T21:27:28.095Z,6.64
2023-03-31T21:32:31.442Z,6.66
2023-03-31T21:37:34.356Z,6.65
2023-03-31T21:42:37.552Z,6.71
2023-03-31T21:47:40.148Z,6.86
2023-03-31T21:52:46.383Z,6.95
2023-03-31T21:57:49.972Z,7.01
2023-03-31T22:03:22.151Z,6.95
2023-03-31T22:08:33.239Z,6.91
2023-03-31T22:13:52.401Z,6.90
2023-03-31T22:18:55.179Z,6.92
2023-03-31T22:24:00.074Z,6.95
2023-03-31T22:29:02.842Z,6.96
2023-03-31T22:34:05.554Z,7.02
2023-03-31T22:39:10.353Z,7.12
2023-03-31T22:44:13.051Z,7.25
2023-03-31T22:49:15.861Z,7.41
2023-03-31T22:54:18.655Z,7.51
2023-03-31T22:59:21.612Z,7.53
2023-03-31T23:04:24.458Z,7.54
2023-03-31T23:09:27.233Z,7.51
2023-03-31T23:14:29.944Z,7.49
2023-03-31T23:19:33.676Z,7.57
2023-03-31T23:24:36.359Z,7.62
2023-03-31T23:29:39.182Z,7.59
2023-03-31T23:34:42.482Z,7.60
2023-03-31T23:39:45.603Z,7.55
2023-03-31T23:44:48.285Z,7.55
2023-03-31T23:49:51.178Z,7.58
2023-03-31T23:54:53.883Z,7.53
2023-03-31T23:59:56.655Z,7.45
